sensor_id;sensor_type;location;lat;lon;timestamp;temperature;humidity
15133;DHT22;7667;51.232;17.110;2022-10-16T00:01:42;10.00;99.90
15133;DHT22;7667;51.232;17.110;2022-10-16T00:04:10;9.90;99.90
15133;DHT22;7667;51.232;17.110;2022-10-16T00:06:38;10.00;99.90
15133;DHT22;7667;51.232;17.110;2022-10-16T00:09:06;10.10;99.90
15133;DHT22;7667;51.232;17.110;2022-10-16T00:11:37;10.10;99.90
15133;DHT22;7667;51.232;17.110;2022-10-16T00:14:12;10.10;99.90
15133;DHT22;7667;51.232;17.110;2022-10-16T00:16:41;10.10;99.90
15133;DHT22;7667;51.232;17.110;2022-10-16T00:19:10;10.20;99.90
15133;DHT22;7667;51.232;17.110;2022-10-16T00:21:39;10.20;99.90
15133;DHT22;7667;51.232;17.110;2022-10-16T00:24:08;10.20;99.90
15133;DHT22;7667;51.232;17.110;2022-10-16T00:26:37;10.30;99.90
15133;DHT22;7667;51.232;17.110;2022-10-16T00:29:05;10.30;99.90
15133;DHT22;7667;51.232;17.110;2022-10-16T00:31:34;10.30;99.90
15133;DHT22;7667;51.232;17.110;2022-10-16T00:34:01;10.20;99.90
15133;DHT22;7667;51.232;17.110;2022-10-16T00:36:29;10.20;99.90
15133;DHT22;7667;51.232;17.110;2022-10-16T00:38:57;10.20;99.90
15133;DHT22;7667;51.232;17.110;2022-10-16T00:41:32;10.30;99.90
15133;DHT22;7667;51.232;17.110;2022-10-16T00:44:03;10.40;99.90
15133;DHT22;7667;51.232;17.110;2022-10-16T00:46:51;10.60;99.90
15133;DHT22;7667;51.232;17.110;2022-10-16T00:49:19;10.70;99.90
15133;DHT22;7667;51.232;17.110;2022-10-16T00:51:50;10.80;99.90
15133;DHT22;7667;51.232;17.110;2022-10-16T00:54:21;10.80;99.90
15133;DHT22;7667;51.232;17.110;2022-10-16T00:56:49;10.90;99.90
15133;DHT22;7667;51.232;17.110;2022-10-16T00:59:22;11.00;99.90
15133;DHT22;7667;51.232;17.110;2022-10-16T01:01:52;11.00;99.90
15133;DHT22;7667;51.232;17.110;2022-10-16T01:04:20;11.00;99.90
15133;DHT22;7667;51.232;17.110;2022-10-16T01:13:01;11.20;99.90
15133;DHT22;7667;51.232;17.110;2022-10-16T01:18:44;11.30;99.90
15133;DHT22;7667;51.232;17.110;2022-10-16T01:21:36;11.40;99.90
15133;DHT22;7667;51.232;17.110;2022-10-16T01:24:27;11.40;99.90
15133;DHT22;7667;51.232;17.110;2022-10-16T01:27:16;11.40;99.90
15133;DHT22;7667;51.232;17.110;2022-10-16T01:29:58;11.50;99.90
15133;DHT22;7667;51.232;17.110;2022-10-16T01:32:52;11.40;99.90
15133;DHT22;7667;51.232;17.110;2022-10-16T01:35:30;11.30;99.90
15133;DHT22;7667;51.232;17.110;2022-10-16T01:38:07;11.20;99.90
15133;DHT22;7667;51.232;17.110;2022-10-16T01:40:50;11.10;99.90
15133;DHT22;7667;51.232;17.110;2022-10-16T01:43:24;11.10;99.90
15133;DHT22;7667;51.232;17.110;2022-10-16T01:45:54;11.00;99.90
15133;DHT22;7667;51.232;17.110;2022-10-16T01:48:23;11.00;99.90
15133;DHT22;7667;51.232;17.110;2022-10-16T01:51:01;11.10;99.90
15133;DHT22;7667;51.232;17.110;2022-10-16T01:53:31;11.20;99.90
15133;DHT22;7667;51.232;17.110;2022-10-16T01:56:00;11.30;99.90
15133;DHT22;7667;51.232;17.110;2022-10-16T01:58:30;11.30;99.90
15133;DHT22;7667;51.232;17.110;2022-10-16T02:01:03;11.40;99.90
15133;DHT22;7667;51.232;17.110;2022-10-16T02:03:32;11.40;99.90
15133;DHT22;7667;51.232;17.110;2022-10-16T02:06:01;11.40;99.90
15133;DHT22;7667;51.232;17.110;2022-10-16T02:08:29;11.40;99.90
15133;DHT22;7667;51.232;17.110;2022-10-16T02:10:59;11.40;99.90
15133;DHT22;7667;51.232;17.110;2022-10-16T02:13:38;11.40;99.90
15133;DHT22;7667;51.232;17.110;2022-10-16T02:16:10;11.50;99.90
15133;DHT22;7667;51.232;17.110;2022-10-16T02:18:39;11.50;99.90
15133;DHT22;7667;51.232;17.110;2022-10-16T02:21:16;11.60;99.90
15133;DHT22;7667;51.232;17.110;2022-10-16T02:27:11;11.70;99.90
15133;DHT22;7667;51.232;17.110;2022-10-16T02:29:57;11.70;99.90
15133;DHT22;7667;51.232;17.110;2022-10-16T02:32:30;11.60;99.90
15133;DHT22;7667;51.232;17.110;2022-10-16T02:35:00;11.70;99.90
15133;DHT22;7667;51.232;17.110;2022-10-16T02:37:29;11.70;99.90
15133;DHT22;7667;51.232;17.110;2022-10-16T02:39:57;11.70;99.90
15133;DHT22;7667;51.232;17.110;2022-10-16T02:42:32;11.80;99.90
15133;DHT22;7667;51.232;17.110;2022-10-16T02:45:02;11.70;99.90
15133;DHT22;7667;51.232;17.110;2022-10-16T02:47:31;11.70;99.90
15133;DHT22;7667;51.232;17.110;2022-10-16T02:49:58;11.70;99.90
15133;DHT22;7667;51.232;17.110;2022-10-16T02:52:26;11.60;99.90
15133;DHT22;7667;51.232;17.110;2022-10-16T02:54:54;11.60;99.90
15133;DHT22;7667;51.232;17.110;2022-10-16T02:57:22;11.60;99.90
15133;DHT22;7667;51.232;17.110;2022-10-16T02:59:50;11.70;99.90
15133;DHT22;7667;51.232;17.110;2022-10-16T03:02:17;11.70;99.90
15133;DHT22;7667;51.232;17.110;2022-10-16T03:04:45;11.70;99.90
15133;DHT22;7667;51.232;17.110;2022-10-16T03:07:12;11.70;99.90
15133;DHT22;7667;51.232;17.110;2022-10-16T03:09:40;11.70;99.90
15133;DHT22;7667;51.232;17.110;2022-10-16T03:12:07;11.70;99.90
15133;DHT22;7667;51.232;17.110;2022-10-16T03:14:35;11.70;99.90
15133;DHT22;7667;51.232;17.110;2022-10-16T03:17:02;11.60;99.90
15133;DHT22;7667;51.232;17.110;2022-10-16T03:19:30;11.50;99.90
15133;DHT22;7667;51.232;17.110;2022-10-16T03:21:57;11.60;99.90
15133;DHT22;7667;51.232;17.110;2022-10-16T03:24:24;11.60;99.90
15133;DHT22;7667;51.232;17.110;2022-10-16T03:26:52;11.60;99.90
15133;DHT22;7667;51.232;17.110;2022-10-16T03:29:19;11.60;99.90
15133;DHT22;7667;51.232;17.110;2022-10-16T03:31:47;11.60;99.90
15133;DHT22;7667;51.232;17.110;2022-10-16T03:34:16;11.60;99.90
15133;DHT22;7667;51.232;17.110;2022-10-16T03:36:43;11.50;99.90
15133;DHT22;7667;51.232;17.110;2022-10-16T03:39:11;11.50;99.90
15133;DHT22;7667;51.232;17.110;2022-10-16T03:41:38;11.50;99.90
15133;DHT22;7667;51.232;17.110;2022-10-16T03:44:06;11.50;99.90
15133;DHT22;7667;51.232;17.110;2022-10-16T03:46:33;11.50;99.90
15133;DHT22;7667;51.232;17.110;2022-10-16T03:49:01;11.60;99.90
15133;DHT22;7667;51.232;17.110;2022-10-16T03:51:33;11.60;99.90
15133;DHT22;7667;51.232;17.110;2022-10-16T03:54:00;11.60;99.90
15133;DHT22;7667;51.232;17.110;2022-10-16T03:56:28;11.60;99.90
15133;DHT22;7667;51.232;17.110;2022-10-16T03:58:55;11.60;99.90
15133;DHT22;7667;51.232;17.110;2022-10-16T04:01:23;11.60;99.90
15133;DHT22;7667;51.232;17.110;2022-10-16T04:03:50;11.60;99.90
15133;DHT22;7667;51.232;17.110;2022-10-16T04:06:18;11.70;99.90
15133;DHT22;7667;51.232;17.110;2022-10-16T04:08:45;11.70;99.90
15133;DHT22;7667;51.232;17.110;2022-10-16T04:11:13;11.70;99.90
15133;DHT22;7667;51.232;17.110;2022-10-16T04:13:40;11.80;99.90
15133;DHT22;7667;51.232;17.110;2022-10-16T04:16:08;11.80;99.90
15133;DHT22;7667;51.232;17.110;2022-10-16T04:18:36;11.70;99.90
15133;DHT22;7667;51.232;17.110;2022-10-16T04:21:05;11.70;99.90
15133;DHT22;7667;51.232;17.110;2022-10-16T04:23:33;11.80;99.90
15133;DHT22;7667;51.232;17.110;2022-10-16T04:26:00;11.70;99.90
15133;DHT22;7667;51.232;17.110;2022-10-16T04:28:28;11.60;99.90
15133;DHT22;7667;51.232;17.110;2022-10-16T04:30:56;11.50;99.90
15133;DHT22;7667;51.232;17.110;2022-10-16T04:33:23;11.40;99.90
15133;DHT22;7667;51.232;17.110;2022-10-16T04:35:59;11.30;99.90
15133;DHT22;7667;51.232;17.110;2022-10-16T04:38:27;11.20;99.90
15133;DHT22;7667;51.232;17.110;2022-10-16T04:40:55;11.30;99.90
15133;DHT22;7667;51.232;17.110;2022-10-16T04:43:23;11.30;99.90
15133;DHT22;7667;51.232;17.110;2022-10-16T04:45:51;11.40;99.90
15133;DHT22;7667;51.232;17.110;2022-10-16T04:48:19;11.50;99.90
15133;DHT22;7667;51.232;17.110;2022-10-16T04:50:46;11.60;99.90
15133;DHT22;7667;51.232;17.110;2022-10-16T04:53:21;11.60;99.90
15133;DHT22;7667;51.232;17.110;2022-10-16T04:55:49;11.70;99.90
15133;DHT22;7667;51.232;17.110;2022-10-16T04:58:17;11.70;99.90
15133;DHT22;7667;51.232;17.110;2022-10-16T05:00:45;11.70;99.90
15133;DHT22;7667;51.232;17.110;2022-10-16T05:03:13;11.70;99.90
15133;DHT22;7667;51.232;17.110;2022-10-16T05:05:45;11.60;99.90
15133;DHT22;7667;51.232;17.110;2022-10-16T05:08:14;11.60;99.90
15133;DHT22;7667;51.232;17.110;2022-10-16T05:10:43;11.70;99.90
15133;DHT22;7667;51.232;17.110;2022-10-16T05:13:11;11.70;99.90
15133;DHT22;7667;51.232;17.110;2022-10-16T05:15:39;11.70;99.90
15133;DHT22;7667;51.232;17.110;2022-10-16T05:18:06;11.60;99.90
15133;DHT22;7667;51.232;17.110;2022-10-16T05:20:34;11.60;99.90
15133;DHT22;7667;51.232;17.110;2022-10-16T05:23:01;11.60;99.90
15133;DHT22;7667;51.232;17.110;2022-10-16T05:25:29;11.60;99.90
15133;DHT22;7667;51.232;17.110;2022-10-16T05:27:56;11.50;99.90
15133;DHT22;7667;51.232;17.110;2022-10-16T05:30:24;11.40;99.90
15133;DHT22;7667;51.232;17.110;2022-10-16T05:32:51;11.30;99.90
15133;DHT22;7667;51.232;17.110;2022-10-16T05:35:19;11.30;99.90
15133;DHT22;7667;51.232;17.110;2022-10-16T05:37:47;11.30;99.90
15133;DHT22;7667;51.232;17.110;2022-10-16T05:40:15;11.30;99.90
15133;DHT22;7667;51.232;17.110;2022-10-16T05:42:43;11.40;99.90
15133;DHT22;7667;51.232;17.110;2022-10-16T05:45:11;11.40;99.90
15133;DHT22;7667;51.232;17.110;2022-10-16T05:47:39;11.50;99.90
15133;DHT22;7667;51.232;17.110;2022-10-16T05:50:07;11.60;99.90
15133;DHT22;7667;51.232;17.110;2022-10-16T05:52:35;11.60;99.90
15133;DHT22;7667;51.232;17.110;2022-10-16T05:55:03;11.60;99.90
15133;DHT22;7667;51.232;17.110;2022-10-16T05:57:31;11.60;99.90
15133;DHT22;7667;51.232;17.110;2022-10-16T05:59:58;11.60;99.90
15133;DHT22;7667;51.232;17.110;2022-10-16T06:02:26;11.50;99.90
15133;DHT22;7667;51.232;17.110;2022-10-16T06:04:54;11.60;99.90
15133;DHT22;7667;51.232;17.110;2022-10-16T06:07:22;11.60;99.90
15133;DHT22;7667;51.232;17.110;2022-10-16T06:09:51;11.60;99.90
15133;DHT22;7667;51.232;17.110;2022-10-16T06:12:19;11.70;99.90
15133;DHT22;7667;51.232;17.110;2022-10-16T06:14:47;11.80;99.90
15133;DHT22;7667;51.232;17.110;2022-10-16T06:17:15;11.80;99.90
15133;DHT22;7667;51.232;17.110;2022-10-16T06:19:43;11.90;99.90
15133;DHT22;7667;51.232;17.110;2022-10-16T06:22:10;11.80;99.90
15133;DHT22;7667;51.232;17.110;2022-10-16T06:24:38;11.80;99.90
15133;DHT22;7667;51.232;17.110;2022-10-16T06:27:06;11.90;99.90
15133;DHT22;7667;51.232;17.110;2022-10-16T06:29:33;11.90;99.90
15133;DHT22;7667;51.232;17.110;2022-10-16T06:32:01;12.00;99.90
15133;DHT22;7667;51.232;17.110;2022-10-16T06:34:28;12.10;99.90
15133;DHT22;7667;51.232;17.110;2022-10-16T06:36:55;12.30;99.90
15133;DHT22;7667;51.232;17.110;2022-10-16T06:39:23;12.40;99.90
15133;DHT22;7667;51.232;17.110;2022-10-16T06:41:51;12.60;99.90
15133;DHT22;7667;51.232;17.110;2022-10-16T06:44:18;12.70;99.90
15133;DHT22;7667;51.232;17.110;2022-10-16T06:46:45;12.80;99.90
15133;DHT22;7667;51.232;17.110;2022-10-16T06:49:13;13.00;99.90
15133;DHT22;7667;51.232;17.110;2022-10-16T06:51:42;13.20;99.90
15133;DHT22;7667;51.232;17.110;2022-10-16T06:54:10;13.40;99.90
15133;DHT22;7667;51.232;17.110;2022-10-16T06:56:37;13.50;99.90
15133;DHT22;7667;51.232;17.110;2022-10-16T06:59:05;13.60;99.90
15133;DHT22;7667;51.232;17.110;2022-10-16T07:01:32;13.70;99.90
15133;DHT22;7667;51.232;17.110;2022-10-16T07:04:00;13.90;99.90
15133;DHT22;7667;51.232;17.110;2022-10-16T07:06:32;14.00;99.90
15133;DHT22;7667;51.232;17.110;2022-10-16T07:09:02;14.00;99.90
15133;DHT22;7667;51.232;17.110;2022-10-16T07:11:31;14.00;99.90
15133;DHT22;7667;51.232;17.110;2022-10-16T07:13:58;13.90;99.90
15133;DHT22;7667;51.232;17.110;2022-10-16T07:16:28;14.10;99.90
15133;DHT22;7667;51.232;17.110;2022-10-16T07:18:58;14.40;99.90
15133;DHT22;7667;51.232;17.110;2022-10-16T07:21:30;14.70;99.90
15133;DHT22;7667;51.232;17.110;2022-10-16T07:24:04;14.90;99.90
15133;DHT22;7667;51.232;17.110;2022-10-16T07:26:35;15.00;99.90
15133;DHT22;7667;51.232;17.110;2022-10-16T07:29:03;15.30;99.90
15133;DHT22;7667;51.232;17.110;2022-10-16T07:31:31;15.30;99.90
15133;DHT22;7667;51.232;17.110;2022-10-16T07:34:00;15.30;99.90
15133;DHT22;7667;51.232;17.110;2022-10-16T07:36:27;15.30;99.90
15133;DHT22;7667;51.232;17.110;2022-10-16T07:38:55;15.30;99.90
15133;DHT22;7667;51.232;17.110;2022-10-16T07:41:27;15.00;99.90
15133;DHT22;7667;51.232;17.110;2022-10-16T07:43:55;14.90;99.90
15133;DHT22;7667;51.232;17.110;2022-10-16T07:46:27;14.70;99.90
15133;DHT22;7667;51.232;17.110;2022-10-16T07:48:55;14.70;99.90
15133;DHT22;7667;51.232;17.110;2022-10-16T07:51:24;14.60;99.90
15133;DHT22;7667;51.232;17.110;2022-10-16T07:53:52;14.60;99.90
15133;DHT22;7667;51.232;17.110;2022-10-16T07:56:21;14.70;99.90
15133;DHT22;7667;51.232;17.110;2022-10-16T07:58:50;14.90;99.90
15133;DHT22;7667;51.232;17.110;2022-10-16T08:01:19;15.10;99.90
15133;DHT22;7667;51.232;17.110;2022-10-16T08:03:49;15.30;99.90
15133;DHT22;7667;51.232;17.110;2022-10-16T08:06:19;15.50;99.90
15133;DHT22;7667;51.232;17.110;2022-10-16T08:08:54;15.70;99.90
15133;DHT22;7667;51.232;17.110;2022-10-16T08:11:23;15.70;99.90
15133;DHT22;7667;51.232;17.110;2022-10-16T08:13:50;15.80;99.90
15133;DHT22;7667;51.232;17.110;2022-10-16T08:16:18;15.80;99.90
15133;DHT22;7667;51.232;17.110;2022-10-16T08:18:46;15.90;99.90
15133;DHT22;7667;51.232;17.110;2022-10-16T08:21:16;16.00;99.90
15133;DHT22;7667;51.232;17.110;2022-10-16T08:23:47;15.90;99.90
15133;DHT22;7667;51.232;17.110;2022-10-16T08:26:23;15.90;99.90
15133;DHT22;7667;51.232;17.110;2022-10-16T08:28:50;16.00;99.90
15133;DHT22;7667;51.232;17.110;2022-10-16T08:31:19;15.90;99.90
15133;DHT22;7667;51.232;17.110;2022-10-16T08:33:47;16.00;99.90
15133;DHT22;7667;51.232;17.110;2022-10-16T08:36:16;16.00;99.90
15133;DHT22;7667;51.232;17.110;2022-10-16T08:38:44;16.20;99.90
15133;DHT22;7667;51.232;17.110;2022-10-16T08:44:20;16.90;99.90
15133;DHT22;7667;51.232;17.110;2022-10-16T08:49:59;17.60;99.90
15133;DHT22;7667;51.232;17.110;2022-10-16T08:52:32;17.60;99.90
15133;DHT22;7667;51.232;17.110;2022-10-16T08:55:04;17.60;99.90
15133;DHT22;7667;51.232;17.110;2022-10-16T08:57:32;17.60;99.90
15133;DHT22;7667;51.232;17.110;2022-10-16T09:00:08;17.70;99.90
15133;DHT22;7667;51.232;17.110;2022-10-16T09:06:08;18.00;99.90
15133;DHT22;7667;51.232;17.110;2022-10-16T09:11:38;17.90;99.90
15133;DHT22;7667;51.232;17.110;2022-10-16T09:17:48;17.50;99.90
15133;DHT22;7667;51.232;17.110;2022-10-16T09:23:25;17.50;99.90
15133;DHT22;7667;51.232;17.110;2022-10-16T09:25:55;17.50;99.90
15133;DHT22;7667;51.232;17.110;2022-10-16T09:28:23;17.50;99.90
15133;DHT22;7667;51.232;17.110;2022-10-16T09:30:51;17.70;99.90
15133;DHT22;7667;51.232;17.110;2022-10-16T09:33:22;17.70;99.90
15133;DHT22;7667;51.232;17.110;2022-10-16T09:35:53;17.90;99.90
15133;DHT22;7667;51.232;17.110;2022-10-16T09:38:33;17.90;99.90
15133;DHT22;7667;51.232;17.110;2022-10-16T09:41:22;18.00;99.90
15133;DHT22;7667;51.232;17.110;2022-10-16T09:43:57;18.10;99.90
15133;DHT22;7667;51.232;17.110;2022-10-16T09:46:34;18.50;99.90
15133;DHT22;7667;51.232;17.110;2022-10-16T09:49:26;19.00;99.90
15133;DHT22;7667;51.232;17.110;2022-10-16T09:52:11;19.30;99.90
15133;DHT22;7667;51.232;17.110;2022-10-16T09:55:12;19.70;99.90
15133;DHT22;7667;51.232;17.110;2022-10-16T09:57:54;20.40;99.90
15133;DHT22;7667;51.232;17.110;2022-10-16T10:00:23;20.70;99.90
15133;DHT22;7667;51.232;17.110;2022-10-16T10:02:52;20.70;99.90
15133;DHT22;7667;51.232;17.110;2022-10-16T10:05:27;20.80;99.90
15133;DHT22;7667;51.232;17.110;2022-10-16T10:08:00;20.60;99.90
15133;DHT22;7667;51.232;17.110;2022-10-16T10:10:40;20.40;99.90
15133;DHT22;7667;51.232;17.110;2022-10-16T10:13:35;20.50;99.90
15133;DHT22;7667;51.232;17.110;2022-10-16T10:16:03;20.70;99.90
15133;DHT22;7667;51.232;17.110;2022-10-16T10:18:30;20.90;99.90
15133;DHT22;7667;51.232;17.110;2022-10-16T10:21:00;21.00;99.90
15133;DHT22;7667;51.232;17.110;2022-10-16T10:23:29;21.10;99.90
15133;DHT22;7667;51.232;17.110;2022-10-16T10:26:07;21.30;99.90
15133;DHT22;7667;51.232;17.110;2022-10-16T10:31:33;21.70;99.90
15133;DHT22;7667;51.232;17.110;2022-10-16T10:34:23;21.30;99.90
15133;DHT22;7667;51.232;17.110;2022-10-16T10:37:19;21.40;99.90
15133;DHT22;7667;51.232;17.110;2022-10-16T10:43:30;21.50;99.90
15133;DHT22;7667;51.232;17.110;2022-10-16T10:46:09;21.40;99.90
15133;DHT22;7667;51.232;17.110;2022-10-16T10:49:29;21.20;99.90
15133;DHT22;7667;51.232;17.110;2022-10-16T10:54:50;21.70;99.90
15133;DHT22;7667;51.232;17.110;2022-10-16T10:57:25;22.00;99.90
15133;DHT22;7667;51.232;17.110;2022-10-16T11:00:41;22.00;99.90
15133;DHT22;7667;51.232;17.110;2022-10-16T11:06:22;22.60;99.90
15133;DHT22;7667;51.232;17.110;2022-10-16T11:11:44;22.60;99.90
15133;DHT22;7667;51.232;17.110;2022-10-16T11:14:30;22.90;99.90
15133;DHT22;7667;51.232;17.110;2022-10-16T11:17:26;23.10;99.90
15133;DHT22;7667;51.232;17.110;2022-10-16T11:20:12;22.90;99.90
15133;DHT22;7667;51.232;17.110;2022-10-16T11:22:52;22.70;99.90
15133;DHT22;7667;51.232;17.110;2022-10-16T11:31:00;23.00;99.90
15133;DHT22;7667;51.232;17.110;2022-10-16T11:33:46;23.20;99.90
15133;DHT22;7667;51.232;17.110;2022-10-16T11:36:21;23.20;99.90
15133;DHT22;7667;51.232;17.110;2022-10-16T11:47:44;22.50;99.90
15133;DHT22;7667;51.232;17.110;2022-10-16T11:50:34;22.70;99.90
15133;DHT22;7667;51.232;17.110;2022-10-16T11:53:16;22.10;99.90
15133;DHT22;7667;51.232;17.110;2022-10-16T11:55:49;21.60;99.90
15133;DHT22;7667;51.232;17.110;2022-10-16T11:58:22;21.70;99.90
15133;DHT22;7667;51.232;17.110;2022-10-16T12:06:49;21.50;99.90
15133;DHT22;7667;51.232;17.110;2022-10-16T12:09:31;21.20;99.90
15133;DHT22;7667;51.232;17.110;2022-10-16T12:12:01;21.20;99.90
15133;DHT22;7667;51.232;17.110;2022-10-16T12:14:39;21.20;99.90
15133;DHT22;7667;51.232;17.110;2022-10-16T12:17:35;20.70;99.90
15133;DHT22;7667;51.232;17.110;2022-10-16T12:20:28;20.50;99.90
15133;DHT22;7667;51.232;17.110;2022-10-16T12:28:06;20.40;99.90
15133;DHT22;7667;51.232;17.110;2022-10-16T12:30:56;20.40;99.90
15133;DHT22;7667;51.232;17.110;2022-10-16T12:33:33;20.40;99.90
15133;DHT22;7667;51.232;17.110;2022-10-16T12:36:04;20.40;99.90
15133;DHT22;7667;51.232;17.110;2022-10-16T12:38:50;20.50;99.90
15133;DHT22;7667;51.232;17.110;2022-10-16T12:41:33;20.50;99.90
15133;DHT22;7667;51.232;17.110;2022-10-16T12:44:02;20.50;99.90
15133;DHT22;7667;51.232;17.110;2022-10-16T12:51:41;21.00;99.90
15133;DHT22;7667;51.232;17.110;2022-10-16T12:54:15;21.20;99.90
15133;DHT22;7667;51.232;17.110;2022-10-16T13:00:32;21.60;99.90
15133;DHT22;7667;51.232;17.110;2022-10-16T13:12:41;20.90;99.90
15133;DHT22;7667;51.232;17.110;2022-10-16T13:15:29;21.20;99.90
15133;DHT22;7667;51.232;17.110;2022-10-16T13:24:42;21.10;99.90
15133;DHT22;7667;51.232;17.110;2022-10-16T13:27:59;21.20;99.90
15133;DHT22;7667;51.232;17.110;2022-10-16T13:30:52;20.80;99.90
15133;DHT22;7667;51.232;17.110;2022-10-16T13:33:35;20.70;99.90
15133;DHT22;7667;51.232;17.110;2022-10-16T13:36:05;21.10;99.90
15133;DHT22;7667;51.232;17.110;2022-10-16T13:38:35;21.70;99.90
15133;DHT22;7667;51.232;17.110;2022-10-16T13:41:05;22.80;99.90
15133;DHT22;7667;51.232;17.110;2022-10-16T13:43:51;22.80;99.90
15133;DHT22;7667;51.232;17.110;2022-10-16T13:46:24;22.20;99.90
15133;DHT22;7667;51.232;17.110;2022-10-16T13:49:03;21.90;99.90
15133;DHT22;7667;51.232;17.110;2022-10-16T13:51:32;21.70;99.90
15133;DHT22;7667;51.232;17.110;2022-10-16T13:54:00;22.60;99.90
15133;DHT22;7667;51.232;17.110;2022-10-16T13:56:30;23.10;99.90
15133;DHT22;7667;51.232;17.110;2022-10-16T13:59:04;23.50;99.90
15133;DHT22;7667;51.232;17.110;2022-10-16T14:01:43;23.80;99.90
15133;DHT22;7667;51.232;17.110;2022-10-16T14:04:12;23.60;99.90
15133;DHT22;7667;51.232;17.110;2022-10-16T14:06:42;22.60;99.90
15133;DHT22;7667;51.232;17.110;2022-10-16T14:09:25;21.60;99.90
15133;DHT22;7667;51.232;17.110;2022-10-16T14:12:00;21.80;99.90
15133;DHT22;7667;51.232;17.110;2022-10-16T14:14:41;21.70;99.90
15133;DHT22;7667;51.232;17.110;2022-10-16T14:17:23;22.30;99.90
15133;DHT22;7667;51.232;17.110;2022-10-16T14:20:03;21.90;99.90
15133;DHT22;7667;51.232;17.110;2022-10-16T14:22:37;21.60;99.90
15133;DHT22;7667;51.232;17.110;2022-10-16T14:28:18;20.90;99.90
15133;DHT22;7667;51.232;17.110;2022-10-16T14:30:57;20.60;99.90
15133;DHT22;7667;51.232;17.110;2022-10-16T14:36:16;20.30;99.90
15133;DHT22;7667;51.232;17.110;2022-10-16T14:39:01;20.40;99.90
15133;DHT22;7667;51.232;17.110;2022-10-16T14:41:45;20.50;99.90
15133;DHT22;7667;51.232;17.110;2022-10-16T14:44:17;20.70;99.90
15133;DHT22;7667;51.232;17.110;2022-10-16T14:46:46;20.80;99.90
15133;DHT22;7667;51.232;17.110;2022-10-16T14:49:17;20.80;99.90
15133;DHT22;7667;51.232;17.110;2022-10-16T14:51:49;20.80;99.90
15133;DHT22;7667;51.232;17.110;2022-10-16T14:54:18;20.90;99.90
15133;DHT22;7667;51.232;17.110;2022-10-16T14:56:50;20.80;99.90
15133;DHT22;7667;51.232;17.110;2022-10-16T14:59:36;20.80;99.90
15133;DHT22;7667;51.232;17.110;2022-10-16T15:02:20;20.80;99.90
15133;DHT22;7667;51.232;17.110;2022-10-16T15:04:52;20.60;99.90
15133;DHT22;7667;51.232;17.110;2022-10-16T15:07:20;20.40;99.90
15133;DHT22;7667;51.232;17.110;2022-10-16T15:09:48;19.90;99.90
15133;DHT22;7667;51.232;17.110;2022-10-16T15:12:16;19.80;99.90
15133;DHT22;7667;51.232;17.110;2022-10-16T15:14:44;19.60;99.90
15133;DHT22;7667;51.232;17.110;2022-10-16T15:17:12;19.50;99.90
15133;DHT22;7667;51.232;17.110;2022-10-16T15:19:42;19.40;99.90
15133;DHT22;7667;51.232;17.110;2022-10-16T15:22:11;19.30;99.90
15133;DHT22;7667;51.232;17.110;2022-10-16T15:24:39;19.20;99.90
15133;DHT22;7667;51.232;17.110;2022-10-16T15:27:06;19.10;99.90
15133;DHT22;7667;51.232;17.110;2022-10-16T15:29:34;19.10;99.90
15133;DHT22;7667;51.232;17.110;2022-10-16T15:32:02;19.20;99.90
15133;DHT22;7667;51.232;17.110;2022-10-16T15:34:30;19.20;99.90
15133;DHT22;7667;51.232;17.110;2022-10-16T15:36:57;19.20;99.90
15133;DHT22;7667;51.232;17.110;2022-10-16T15:39:26;19.20;99.90
15133;DHT22;7667;51.232;17.110;2022-10-16T15:41:54;19.00;99.90
15133;DHT22;7667;51.232;17.110;2022-10-16T15:44:21;18.70;99.90
15133;DHT22;7667;51.232;17.110;2022-10-16T15:46:56;18.60;99.90
15133;DHT22;7667;51.232;17.110;2022-10-16T15:49:24;18.50;99.90
15133;DHT22;7667;51.232;17.110;2022-10-16T15:51:51;18.40;99.90
15133;DHT22;7667;51.232;17.110;2022-10-16T15:54:20;18.30;99.90
15133;DHT22;7667;51.232;17.110;2022-10-16T15:56:49;18.30;99.90
15133;DHT22;7667;51.232;17.110;2022-10-16T15:59:17;18.20;99.90
15133;DHT22;7667;51.232;17.110;2022-10-16T16:01:44;18.20;99.90
15133;DHT22;7667;51.232;17.110;2022-10-16T16:04:12;18.10;99.90
15133;DHT22;7667;51.232;17.110;2022-10-16T16:06:59;18.10;99.90
15133;DHT22;7667;51.232;17.110;2022-10-16T16:09:30;18.00;99.90
15133;DHT22;7667;51.232;17.110;2022-10-16T16:11:58;18.00;99.90
15133;DHT22;7667;51.232;17.110;2022-10-16T16:14:28;17.90;99.90
15133;DHT22;7667;51.232;17.110;2022-10-16T16:16:56;17.70;99.90
15133;DHT22;7667;51.232;17.110;2022-10-16T16:19:24;17.60;99.90
15133;DHT22;7667;51.232;17.110;2022-10-16T16:21:51;17.50;99.90
15133;DHT22;7667;51.232;17.110;2022-10-16T16:24:19;17.30;99.90
15133;DHT22;7667;51.232;17.110;2022-10-16T16:26:47;17.20;99.90
15133;DHT22;7667;51.232;17.110;2022-10-16T16:29:15;17.10;99.90
15133;DHT22;7667;51.232;17.110;2022-10-16T16:31:43;16.90;99.90
15133;DHT22;7667;51.232;17.110;2022-10-16T16:34:11;16.80;99.90
15133;DHT22;7667;51.232;17.110;2022-10-16T16:36:38;16.60;99.90
15133;DHT22;7667;51.232;17.110;2022-10-16T16:39:07;16.60;99.90
15133;DHT22;7667;51.232;17.110;2022-10-16T16:41:35;16.60;99.90
15133;DHT22;7667;51.232;17.110;2022-10-16T16:44:05;16.50;99.90
15133;DHT22;7667;51.232;17.110;2022-10-16T16:46:34;16.50;99.90
15133;DHT22;7667;51.232;17.110;2022-10-16T16:49:02;16.40;99.90
15133;DHT22;7667;51.232;17.110;2022-10-16T17:03:04;16.10;99.90
15133;DHT22;7667;51.232;17.110;2022-10-16T17:05:32;16.10;99.90
15133;DHT22;7667;51.232;17.110;2022-10-16T17:08:13;16.10;99.90
15133;DHT22;7667;51.232;17.110;2022-10-16T17:10:55;16.10;99.90
15133;DHT22;7667;51.232;17.110;2022-10-16T17:13:25;16.00;99.90
15133;DHT22;7667;51.232;17.110;2022-10-16T17:15:54;16.00;99.90
15133;DHT22;7667;51.232;17.110;2022-10-16T17:18:35;15.90;99.90
15133;DHT22;7667;51.232;17.110;2022-10-16T17:21:17;15.90;99.90
15133;DHT22;7667;51.232;17.110;2022-10-16T17:23:45;15.90;99.90
15133;DHT22;7667;51.232;17.110;2022-10-16T17:26:15;15.80;99.90
15133;DHT22;7667;51.232;17.110;2022-10-16T17:29:00;15.80;99.90
15133;DHT22;7667;51.232;17.110;2022-10-16T17:31:41;15.60;99.90
15133;DHT22;7667;51.232;17.110;2022-10-16T17:34:09;15.50;99.90
15133;DHT22;7667;51.232;17.110;2022-10-16T17:36:39;15.30;99.90
15133;DHT22;7667;51.232;17.110;2022-10-16T17:39:12;15.10;99.90
15133;DHT22;7667;51.232;17.110;2022-10-16T17:41:41;15.00;99.90
15133;DHT22;7667;51.232;17.110;2022-10-16T17:44:09;14.80;99.90
15133;DHT22;7667;51.232;17.110;2022-10-16T17:46:50;14.80;99.90
15133;DHT22;7667;51.232;17.110;2022-10-16T17:49:19;14.60;99.90
15133;DHT22;7667;51.232;17.110;2022-10-16T17:51:52;14.60;99.90
15133;DHT22;7667;51.232;17.110;2022-10-16T17:54:20;14.60;99.90
15133;DHT22;7667;51.232;17.110;2022-10-16T17:56:47;14.50;99.90